createdAt,value
2019-04-22T00:00:32.388Z,47.28
2019-04-22T00:02:59.820Z,45.77
2019-04-22T00:05:42.827Z,46.31
2019-04-22T00:08:18.148Z,47.18
2019-04-22T00:10:55.824Z,47.69
2019-04-22T00:13:26.229Z,48.75
2019-04-22T00:15:42.199Z,49.13
2019-04-22T00:18:25.950Z,49.51
2019-04-22T00:20:54.533Z,50.23
2019-04-22T00:23:20.394Z,50.74
2019-04-22T00:25:58.699Z,50.03
2019-04-22T00:28:36.582Z,48.86
2019-04-22T00:30:47.388Z,50.20
2019-04-22T00:33:29.091Z,50.25
2019-04-22T00:35:54.454Z,50.70
2019-04-22T00:38:31.532Z,52.91
2019-04-22T00:41:05.702Z,53.26
2019-04-22T00:43:46.242Z,53.17
2019-04-22T00:46:02.726Z,53.84
2019-04-22T00:48:35.953Z,54.76
2019-04-22T00:51:06.342Z,54.90
2019-04-22T00:53:35.374Z,56.38
2019-04-22T00:56:10.633Z,54.53
2019-04-22T01:01:17.016Z,53.87
2019-04-22T01:03:46.214Z,53.46
2019-04-22T01:06:13.063Z,55.55
2019-04-22T01:08:48.151Z,56.24
2019-04-22T01:11:13.350Z,55.98
2019-04-22T01:13:42.491Z,56.29
2019-04-22T01:16:13.794Z,58.29
2019-04-22T01:18:37.669Z,58.09
2019-04-22T01:21:17.054Z,57.42
2019-04-22T01:23:34.522Z,56.56
2019-04-22T01:26:05.124Z,56.17
2019-04-22T01:28:34.276Z,57.63
2019-04-22T01:30:55.634Z,57.87
2019-04-22T01:33:26.929Z,56.47
2019-04-22T01:36:08.072Z,56.00
2019-04-22T01:38:36.571Z,56.89
2019-04-22T01:41:20.198Z,58.74
2019-04-22T01:43:56.851Z,58.40
2019-04-22T01:46:18.388Z,59.78
2019-04-22T01:48:44.897Z,60.74
2019-04-22T01:51:07.623Z,59.79
2019-04-22T01:53:42.471Z,58.56
2019-04-22T01:56:17.495Z,59.80
2019-04-22T01:58:33.510Z,59.67
2019-04-22T02:01:04.901Z,59.17
2019-04-22T02:03:40.906Z,59.90
2019-04-22T02:06:18.032Z,59.71
2019-04-22T02:08:44.935Z,60.01
2019-04-22T02:11:17.335Z,58.96
2019-04-22T02:13:43.086Z,58.96
2019-04-22T02:16:15.147Z,58.93
2019-04-22T02:21:08.846Z,59.95
2019-04-22T02:23:51.215Z,59.70
2019-04-22T02:26:15.542Z,59.80
2019-04-22T02:31:25.845Z,58.58
2019-04-22T02:41:23.083Z,58.02
2019-04-22T02:46:33.154Z,56.96
2019-04-22T02:51:18.795Z,57.75
2019-04-22T02:54:15.182Z,58.81
2019-04-22T02:58:58.726Z,59.91
2019-04-22T03:01:25.672Z,59.99
2019-04-22T03:06:24.693Z,59.13
2019-04-22T03:08:51.309Z,59.06
2019-04-22T03:16:17.734Z,61.38
2019-04-22T03:18:55.057Z,61.36
2019-04-22T03:21:11.640Z,61.35
2019-04-22T03:26:22.549Z,59.93
2019-04-22T03:35:09.625Z,60.21
2019-04-22T03:42:05.161Z,63.95
2019-04-22T03:47:07.115Z,64.29
2019-04-22T03:54:29.604Z,62.58
2019-04-22T03:57:18.318Z,62.08
2019-04-22T03:59:28.682Z,62.16
2019-04-22T04:01:56.941Z,61.43
2019-04-22T04:04:24.219Z,61.43
2019-04-22T04:06:59.703Z,60.59
2019-04-22T04:12:01.979Z,59.72
2019-04-22T04:14:35.889Z,60.91
2019-04-22T04:16:56.276Z,62.10
2019-04-22T04:19:30.353Z,63.70
2019-04-22T04:24:32.020Z,63.48
2019-04-22T04:31:59.050Z,63.49
2019-04-22T04:34:43.165Z,62.98
2019-04-22T04:36:54.854Z,62.45
2019-04-22T04:42:07.746Z,62.25
2019-04-22T04:44:23.558Z,59.35
2019-04-22T04:47:05.987Z,57.45
2019-04-22T04:51:49.125Z,55.13
2019-04-22T04:59:28.125Z,51.25
2019-04-22T05:02:00.120Z,44.88
2019-04-22T05:06:57.209Z,42.92
2019-04-22T05:11:51.949Z,44.40
2019-04-22T05:14:14.469Z,46.38
2019-04-22T05:16:43.065Z,44.20
2019-04-22T05:21:31.041Z,40.62
2019-04-22T05:24:13.263Z,39.78
2019-04-22T05:26:46.919Z,39.88
2019-04-22T05:29:06.592Z,41.33
2019-04-22T05:31:38.993Z,42.75
2019-04-22T05:34:04.300Z,45.28
2019-04-22T05:36:37.981Z,47.49
2019-04-22T05:39:01.808Z,46.74
2019-04-22T05:41:32.377Z,47.57
2019-04-22T05:44:05.072Z,47.18
2019-04-22T05:46:32.729Z,47.68
2019-04-22T05:49:01.092Z,48.31
2019-04-22T05:51:31.229Z,48.08
2019-04-22T05:54:01.445Z,47.07
2019-04-22T05:56:34.817Z,46.96
2019-04-22T05:59:02.417Z,47.43
2019-04-22T06:01:38.878Z,47.23
2019-04-22T06:04:05.389Z,46.66
2019-04-22T06:06:39.940Z,46.00
2019-04-22T06:09:10.458Z,45.56
2019-04-22T06:11:29.608Z,45.61
2019-04-22T06:14:01.511Z,45.69
2019-04-22T06:16:39.524Z,46.34
2019-04-22T06:19:07.603Z,44.84
2019-04-22T06:21:38.733Z,45.03
2019-04-22T06:24:11.155Z,45.00
2019-04-22T06:26:48.914Z,44.46
2019-04-22T06:29:09.293Z,44.38
2019-04-22T06:31:54.448Z,44.11
2019-04-22T06:36:37.812Z,43.84
2019-04-22T06:38:59.144Z,42.64
2019-04-22T06:41:39.092Z,42.64
2019-04-22T06:44:09.075Z,42.28
2019-04-22T06:46:37.816Z,41.82
2019-04-22T06:49:03.639Z,42.11
2019-04-22T06:51:32.922Z,41.94
2019-04-22T06:54:03.346Z,41.64
2019-04-22T06:56:27.518Z,40.52
2019-04-22T06:58:57.794Z,40.02
2019-04-22T07:01:27.624Z,39.83
2019-04-22T07:04:01.500Z,39.84
2019-04-22T07:09:22.059Z,39.39
2019-04-22T07:11:23.659Z,39.06
2019-04-22T07:14:01.704Z,39.25
2019-04-22T07:18:54.485Z,38.49
2019-04-22T07:21:25.990Z,38.28
2019-04-22T07:24:17.887Z,37.84
2019-04-22T07:26:25.112Z,37.42
2019-04-22T07:28:56.439Z,37.47
2019-04-22T07:31:20.522Z,37.12
2019-04-22T07:33:56.860Z,36.70
2019-04-22T07:38:48.591Z,36.34
2019-04-22T07:41:23.091Z,35.93
2019-04-22T07:44:07.702Z,36.21
2019-04-22T07:46:18.649Z,36.02
2019-04-22T07:48:56.553Z,35.46
2019-04-22T07:51:23.462Z,35.37
2019-04-22T07:53:52.279Z,36.25
2019-04-22T07:56:24.372Z,34.52
2019-04-22T07:58:51.845Z,35.28
2019-04-22T08:04:00.965Z,34.97
2019-04-22T08:06:24.668Z,34.74
2019-04-22T08:08:56.618Z,34.76
2019-04-22T08:11:37.581Z,35.37
2019-04-22T08:13:46.631Z,34.58
2019-04-22T08:16:16.401Z,34.57
2019-04-22T08:18:47.416Z,34.87
2019-04-22T08:21:16.689Z,33.22
2019-04-22T08:23:50.894Z,33.55
2019-04-22T08:26:19.333Z,33.77
2019-04-22T08:28:53.312Z,33.82
2019-04-22T08:31:20.447Z,33.50
2019-04-22T08:33:47.165Z,33.88
2019-04-22T08:36:18.387Z,33.33
2019-04-22T08:38:53.992Z,33.49
2019-04-22T08:41:31.889Z,33.35
2019-04-22T08:43:56.575Z,33.40
2019-04-22T08:46:24.185Z,33.34
2019-04-22T08:48:47.834Z,33.36
2019-04-22T08:51:18.518Z,32.97
2019-04-22T08:53:51.880Z,33.74
2019-04-22T08:56:26.733Z,33.46
2019-04-22T08:58:53.709Z,32.76
2019-04-22T09:01:17.407Z,32.50
2019-04-22T09:03:46.909Z,32.42
2019-04-22T09:06:19.835Z,32.51
2019-04-22T09:08:48.732Z,31.49
2019-04-22T09:11:19.863Z,32.14
2019-04-22T09:13:50.100Z,32.20
2019-04-22T09:16:20.790Z,31.26
2019-04-22T09:18:48.323Z,31.27
2019-04-22T09:21:18.592Z,31.27
2019-04-22T09:26:18.524Z,30.93
2019-04-22T09:28:48.794Z,30.52
2019-04-22T09:31:11.389Z,30.85
2019-04-22T09:33:45.958Z,30.36
2019-04-22T09:36:16.211Z,30.24
2019-04-22T09:38:41.126Z,30.15
2019-04-22T09:41:13.973Z,30.49
2019-04-22T09:43:47.137Z,30.38
2019-04-22T09:46:19.731Z,30.06
2019-04-22T09:48:43.459Z,29.21
2019-04-22T09:51:12.005Z,29.44
2019-04-22T09:53:45.522Z,29.45
2019-04-22T09:56:13.682Z,28.20
2019-04-22T09:58:44.652Z,28.34
2019-04-22T10:01:24.552Z,28.39
2019-04-22T10:03:53.438Z,27.98
2019-04-22T10:11:37.702Z,27.87
2019-04-22T10:14:05.654Z,27.65
2019-04-22T10:21:47.888Z,27.15
2019-04-22T10:24:09.203Z,27.61
2019-04-22T10:26:39.456Z,27.89
2019-04-22T10:31:38.166Z,26.53
2019-04-22T10:33:56.099Z,26.65
2019-04-22T10:36:11.099Z,26.94
2019-04-22T10:38:48.712Z,26.94
2019-04-22T10:41:16.745Z,26.85
2019-04-22T10:43:45.369Z,26.65
2019-04-22T10:46:13.868Z,26.88
2019-04-22T10:48:42.128Z,26.92
2019-04-22T10:51:16.995Z,25.77
2019-04-22T10:53:45.471Z,26.39
2019-04-22T10:56:13.161Z,26.22
2019-04-22T10:58:40.893Z,26.27
2019-04-22T11:01:09.688Z,25.90
2019-04-22T11:03:37.546Z,25.87
2019-04-22T11:06:05.644Z,25.73
2019-04-22T11:08:42.430Z,26.53
2019-04-22T11:11:16.874Z,25.89
2019-04-22T11:13:34.113Z,25.69
2019-04-22T11:16:03.597Z,25.61
2019-04-22T11:18:31.689Z,25.59
2019-04-22T11:20:59.900Z,25.98
2019-04-22T11:23:28.792Z,25.39
2019-04-22T11:25:57.719Z,25.36
2019-04-22T11:28:27.917Z,25.55
2019-04-22T11:30:56.448Z,25.62
2019-04-22T11:33:24.810Z,25.58
2019-04-22T11:35:53.218Z,26.29
2019-04-22T11:38:22.672Z,26.59
2019-04-22T11:40:53.981Z,26.92
2019-04-22T11:43:21.915Z,27.19
2019-04-22T11:45:51.126Z,27.70
2019-04-22T11:48:19.556Z,26.40
2019-04-22T11:50:48.139Z,25.47
2019-04-22T11:53:16.701Z,25.53
2019-04-22T11:55:45.013Z,25.68
2019-04-22T11:58:12.963Z,25.23
2019-04-22T12:00:41.303Z,25.98
2019-04-22T12:03:09.322Z,25.60
2019-04-22T12:05:39.627Z,24.39
2019-04-22T12:08:09.118Z,25.22
2019-04-22T12:10:44.033Z,24.46
2019-04-22T12:13:12.392Z,24.56
2019-04-22T12:15:42.913Z,24.37
2019-04-22T12:18:13.080Z,24.51
2019-04-22T12:20:41.452Z,24.14
2019-04-22T12:23:09.577Z,24.28
2019-04-22T12:25:47.681Z,23.09
2019-04-22T12:28:08.961Z,23.61
2019-04-22T12:30:37.381Z,23.16
2019-04-22T12:33:10.546Z,23.64
2019-04-22T12:35:36.847Z,23.56
2019-04-22T12:38:08.181Z,22.34
2019-04-22T12:40:46.673Z,22.44
2019-04-22T12:43:08.666Z,22.79
2019-04-22T12:45:38.242Z,22.00
2019-04-22T12:48:06.443Z,22.76
2019-04-22T12:50:38.461Z,21.74
2019-04-22T12:53:10.400Z,21.94
2019-04-22T12:55:34.420Z,23.04
2019-04-22T12:58:02.923Z,22.82
2019-04-22T13:00:32.243Z,23.52
2019-04-22T13:03:01.130Z,22.50
2019-04-22T13:05:29.244Z,22.31
2019-04-22T13:07:57.837Z,22.39
2019-04-22T13:10:38.633Z,22.19
2019-04-22T13:12:58.671Z,21.48
2019-04-22T13:15:26.792Z,20.78
2019-04-22T13:18:05.795Z,21.23
2019-04-22T13:20:24.438Z,22.26
2019-04-22T13:22:52.787Z,22.26
2019-04-22T13:25:23.309Z,22.79
2019-04-22T13:27:51.163Z,22.80
2019-04-22T13:30:21.029Z,22.41
2019-04-22T13:32:49.166Z,22.91
2019-04-22T13:35:19.945Z,22.57
2019-04-22T13:37:48.953Z,22.20
2019-04-22T13:40:19.453Z,22.25
2019-04-22T13:42:51.077Z,22.34
2019-04-22T13:45:22.193Z,22.94
2019-04-22T13:48:08.787Z,21.79
2019-04-22T13:53:34.324Z,22.04
2019-04-22T13:58:02.614Z,22.79
2019-04-22T14:00:24.961Z,22.58
2019-04-22T14:03:10.885Z,22.49
2019-04-22T14:05:40.561Z,22.32
2019-04-22T14:08:10.249Z,21.95
2019-04-22T14:10:38.617Z,21.13
2019-04-22T14:13:07.897Z,20.13
2019-04-22T14:15:36.195Z,21.19
2019-04-22T14:18:05.280Z,21.44
2019-04-22T14:20:34.440Z,21.05
2019-04-22T14:23:04.042Z,21.90
2019-04-22T14:25:32.661Z,21.66
2019-04-22T14:28:06.111Z,20.92
2019-04-22T14:30:34.701Z,20.66
2019-04-22T14:33:04.919Z,21.20
2019-04-22T14:35:33.929Z,20.93
2019-04-22T14:38:04.222Z,20.93
2019-04-22T14:40:32.918Z,19.84
2019-04-22T14:43:25.248Z,19.95
2019-04-22T14:46:05.487Z,21.16
2019-04-22T14:48:33.594Z,21.26
2019-04-22T14:50:51.380Z,21.46
2019-04-22T14:53:23.543Z,20.78
2019-04-22T14:55:33.280Z,20.79
2019-04-22T14:58:01.149Z,19.76
2019-04-22T15:00:29.601Z,19.81
2019-04-22T15:02:57.572Z,19.58
2019-04-22T15:05:28.233Z,20.24
2019-04-22T15:07:57.189Z,20.34
2019-04-22T15:10:26.226Z,19.80
2019-04-22T15:12:57.397Z,20.40
2019-04-22T15:16:01.086Z,20.72
2019-04-22T15:19:07.473Z,21.39
2019-04-22T15:21:40.954Z,21.21
2019-04-22T15:24:25.199Z,21.25
2019-04-22T15:26:56.177Z,21.24
2019-04-22T15:29:25.359Z,20.97
2019-04-22T15:31:55.718Z,20.45
2019-04-22T15:34:24.998Z,20.02
2019-04-22T15:36:53.923Z,19.79
2019-04-22T15:39:23.206Z,19.79
2019-04-22T15:42:00.371Z,19.84
2019-04-22T15:44:21.981Z,20.14
2019-04-22T15:46:51.021Z,19.73
2019-04-22T15:49:20.229Z,19.91
2019-04-22T15:51:48.943Z,19.89
2019-04-22T15:54:17.181Z,20.45
2019-04-22T15:56:44.843Z,20.42
2019-04-22T15:59:32.949Z,20.64
2019-04-22T16:01:42.912Z,19.37
2019-04-22T16:04:12.652Z,19.11
2019-04-22T16:06:41.153Z,18.72
2019-04-22T16:09:11.108Z,19.20
2019-04-22T16:11:40.534Z,19.42
2019-04-22T16:14:08.803Z,19.97
2019-04-22T16:16:37.162Z,19.45
2019-04-22T16:19:06.644Z,19.40
2019-04-22T16:21:45.528Z,19.56
2019-04-22T16:24:34.067Z,19.87
2019-04-22T16:27:09.704Z,20.74
2019-04-22T16:29:38.949Z,19.93
2019-04-22T16:32:07.461Z,19.88
2019-04-22T16:34:36.043Z,20.21
2019-04-22T16:37:04.996Z,20.49
2019-04-22T16:39:33.136Z,20.83
2019-04-22T16:42:00.862Z,20.91
2019-04-22T16:44:30.375Z,21.12
2019-04-22T16:46:59.463Z,21.32
2019-04-22T16:49:27.698Z,20.96
2019-04-22T16:51:56.533Z,21.49
2019-04-22T16:54:27.812Z,21.30
2019-04-22T16:56:55.627Z,21.50
2019-04-22T16:59:24.541Z,21.21
2019-04-22T17:02:18.895Z,21.45
2019-04-22T17:05:05.628Z,21.64
2019-04-22T17:07:34.142Z,22.05
2019-04-22T17:10:03.848Z,22.60
2019-04-22T17:12:44.353Z,23.23
2019-04-22T17:15:08.031Z,23.03
2019-04-22T17:17:33.316Z,23.32
2019-04-22T17:20:01.038Z,23.75
2019-04-22T17:22:29.534Z,24.48
2019-04-22T17:24:58.244Z,24.51
2019-04-22T17:27:26.662Z,24.25
2019-04-22T17:29:54.769Z,24.10
2019-04-22T17:32:24.951Z,24.92
2019-04-22T17:34:53.833Z,25.76
2019-04-22T17:37:26.297Z,26.03
2019-04-22T17:40:09.732Z,26.43
2019-04-22T17:42:42.494Z,26.55
2019-04-22T17:45:22.118Z,27.20
2019-04-22T17:48:12.679Z,27.98
2019-04-22T17:50:48.481Z,27.83
2019-04-22T17:53:23.084Z,27.68
2019-04-22T17:55:50.620Z,28.17
2019-04-22T17:58:16.041Z,27.99
2019-04-22T18:00:36.584Z,28.50
2019-04-22T18:03:05.734Z,28.92
2019-04-22T18:05:33.104Z,29.15
2019-04-22T18:08:13.909Z,29.76
2019-04-22T18:10:42.288Z,30.01
2019-04-22T18:13:23.138Z,30.60
2019-04-22T18:15:45.168Z,30.16
2019-04-22T18:18:12.328Z,31.20
2019-04-22T18:20:38.172Z,31.06
2019-04-22T18:23:01.512Z,30.66
2019-04-22T18:25:36.417Z,30.50
2019-04-22T18:28:18.803Z,30.13
2019-04-22T18:30:35.260Z,30.61
2019-04-22T18:33:15.852Z,30.52
2019-04-22T18:35:42.171Z,31.05
2019-04-22T18:38:21.926Z,31.01
2019-04-22T18:40:43.322Z,31.74
2019-04-22T18:43:10.015Z,31.81
2019-04-22T18:45:46.858Z,31.96
2019-04-22T18:48:06.486Z,32.07
2019-04-22T18:50:52.558Z,32.86
2019-04-22T18:53:38.764Z,32.42
2019-04-22T18:56:16.481Z,32.67
2019-04-22T18:58:36.689Z,32.73
2019-04-22T19:00:54.839Z,32.61
2019-04-22T19:03:28.300Z,32.55
2019-04-22T19:06:25.994Z,32.66
2019-04-22T19:08:45.565Z,32.82
2019-04-22T19:11:27.159Z,33.26
2019-04-22T19:14:01.052Z,33.64
2019-04-22T19:18:45.918Z,33.96
2019-04-22T19:21:16.089Z,33.90
2019-04-22T19:23:49.161Z,33.81
2019-04-22T19:26:30.848Z,34.48
2019-04-22T19:28:49.772Z,34.13
2019-04-22T19:31:27.066Z,34.16
2019-04-22T19:33:56.222Z,34.62
2019-04-22T19:36:20.546Z,34.74
2019-04-22T19:38:49.733Z,34.62
2019-04-22T19:41:24.150Z,34.65
2019-04-22T19:43:50.296Z,34.47
2019-04-22T19:46:16.446Z,34.85
2019-04-22T19:48:49.719Z,35.22
2019-04-22T19:51:23.500Z,35.32
2019-04-22T19:53:51.992Z,35.42
2019-04-22T19:56:14.387Z,35.82
2019-04-22T19:58:41.473Z,36.34
2019-04-22T20:01:41.634Z,36.43
2019-04-22T20:04:29.295Z,36.57
2019-04-22T20:06:57.633Z,36.33
2019-04-22T20:12:00.700Z,36.64
2019-04-22T20:14:35.786Z,37.02
2019-04-22T20:16:54.432Z,36.93
2019-04-22T20:19:41.562Z,37.08
2019-04-22T20:22:03.515Z,37.59
2019-04-22T20:24:18.793Z,37.38
2019-04-22T20:27:10.585Z,37.86
2019-04-22T20:29:41.745Z,38.25
2019-04-22T20:32:05.461Z,38.77
2019-04-22T20:34:38.069Z,38.90
2019-04-22T20:37:10.635Z,39.36
2019-04-22T20:39:39.476Z,39.07
2019-04-22T20:42:21.356Z,39.25
2019-04-22T20:44:40.394Z,39.28
2019-04-22T20:47:05.867Z,38.86
2019-04-22T20:49:36.691Z,38.36
2019-04-22T20:52:13.651Z,38.67
2019-04-22T20:54:39.120Z,39.12
2019-04-22T20:57:05.913Z,38.84
2019-04-22T20:59:32.753Z,38.64
2019-04-22T21:02:03.722Z,38.43
2019-04-22T21:04:24.759Z,39.06
2019-04-22T21:07:03.745Z,38.97
2019-04-22T21:09:35.409Z,39.24
2019-04-22T21:12:02.252Z,39.20
2019-04-22T21:14:28.069Z,39.61
2019-04-22T21:17:08.070Z,40.02
2019-04-22T21:19:40.365Z,40.32
2019-04-22T21:22:08.077Z,40.71
2019-04-22T21:24:33.039Z,40.94
2019-04-22T21:27:12.101Z,41.61
2019-04-22T21:29:30.866Z,41.57
2019-04-22T21:32:07.926Z,41.86
2019-04-22T21:34:40.783Z,41.74
2019-04-22T21:37:07.565Z,41.66
2019-04-22T21:39:30.224Z,41.61
2019-04-22T21:41:58.891Z,41.92
2019-04-22T21:44:33.955Z,42.13
2019-04-22T21:47:09.941Z,42.71
2019-04-22T21:49:35.643Z,42.86
2019-04-22T21:52:06.446Z,43.22
2019-04-22T21:54:45.497Z,43.83
2019-04-22T21:57:28.007Z,44.00
2019-04-22T21:59:59.508Z,44.49
2019-04-22T22:02:28.553Z,44.84
2019-04-22T22:04:51.200Z,45.15
2019-04-22T22:07:13.959Z,45.31
2019-04-22T22:09:54.185Z,45.83
2019-04-22T22:12:26.385Z,45.76
2019-04-22T22:15:03.133Z,45.87
2019-04-22T22:17:28.243Z,46.00
2019-04-22T22:19:54.519Z,46.58
2019-04-22T22:22:42.194Z,46.43
2019-04-22T22:24:57.233Z,46.74
2019-04-22T22:27:33.473Z,47.17
2019-04-22T22:30:15.969Z,47.05
2019-04-22T22:32:32.432Z,47.12
2019-04-22T22:34:58.782Z,47.90
2019-04-22T22:37:16.953Z,48.05
2019-04-22T22:39:48.207Z,47.94
2019-04-22T22:42:10.854Z,47.85
2019-04-22T22:44:42.503Z,48.32
2019-04-22T22:47:27.353Z,47.83
2019-04-22T22:49:56.542Z,48.15
2019-04-22T22:54:58.863Z,48.06
2019-04-22T22:59:55.189Z,47.99
2019-04-22T23:02:25.841Z,48.33
2019-04-22T23:04:57.984Z,48.90
2019-04-22T23:07:28.877Z,48.89
2019-04-22T23:09:53.789Z,48.98
2019-04-22T23:14:57.555Z,49.57
2019-04-22T23:17:10.057Z,49.90
2019-04-22T23:19:38.208Z,49.81
2019-04-22T23:22:16.581Z,49.57
2019-04-22T23:25:19.161Z,49.89
2019-04-22T23:27:44.502Z,49.93
2019-04-22T23:30:25.462Z,50.33
2019-04-22T23:33:03.499Z,50.36
2019-04-22T23:35:36.951Z,50.22
2019-04-22T23:38:13.658Z,50.22
2019-04-22T23:40:47.765Z,50.39
2019-04-22T23:45:50.197Z,50.40
2019-04-22T23:48:27.108Z,50.78
2019-04-22T23:51:09.358Z,51.22
2019-04-22T23:56:08.140Z,51.75
